createdAt,value
2017-06-21T00:00:30.000Z,74.90
2017-06-21T00:02:57.538Z,74.70
2017-06-21T00:05:25.092Z,74.20
2017-06-21T00:07:52.619Z,73.80
2017-06-21T00:10:20.172Z,73.90
2017-06-21T00:12:47.699Z,73.90
2017-06-21T00:15:15.256Z,74.30
2017-06-21T00:17:43.559Z,74.80
2017-06-21T00:20:11.127Z,74.70
2017-06-21T00:22:38.655Z,74.60
2017-06-21T00:25:06.191Z,74.80
2017-06-21T00:27:33.743Z,75.10
2017-06-21T00:30:01.266Z,75.30
2017-06-21T00:32:29.583Z,75.40
2017-06-21T00:34:57.115Z,75.40
2017-06-21T00:37:24.662Z,75.60
2017-06-21T00:39:52.955Z,77.10
2017-06-21T00:42:20.525Z,76.90
2017-06-21T00:44:48.060Z,77.40
2017-06-21T00:47:16.359Z,76.90
2017-06-21T00:49:43.907Z,76.80
2017-06-21T00:52:11.440Z,76.40
2017-06-21T00:54:38.992Z,76.40
2017-06-21T00:57:06.519Z,75.60
2017-06-21T00:59:34.835Z,76.90
2017-06-21T01:02:02.366Z,76.80
2017-06-21T01:04:29.932Z,78.20
2017-06-21T01:06:57.503Z,76.80
2017-06-21T01:09:25.036Z,78.80
2017-06-21T01:11:52.592Z,79.80
2017-06-21T01:14:20.129Z,79.40
2017-06-21T01:16:47.688Z,78.60
2017-06-21T01:19:15.987Z,77.80
2017-06-21T01:21:43.535Z,77.80
2017-06-21T01:24:11.068Z,78.40
2017-06-21T01:26:38.614Z,79.00
2017-06-21T01:29:06.904Z,80.20
2017-06-21T01:31:34.455Z,80.00
2017-06-21T01:34:01.992Z,79.50
2017-06-21T01:36:29.559Z,80.20
2017-06-21T01:38:57.093Z,80.60
2017-06-21T01:41:24.624Z,80.40
2017-06-21T01:43:52.175Z,79.80
2017-06-21T01:46:19.708Z,79.80
2017-06-21T01:48:47.263Z,79.90
2017-06-21T01:51:14.800Z,79.90
2017-06-21T01:53:43.115Z,81.30
2017-06-21T01:56:10.649Z,81.30
2017-06-21T01:58:38.988Z,81.30
2017-06-21T02:01:06.520Z,81.30
2017-06-21T02:03:34.050Z,81.30
2017-06-21T02:06:01.608Z,81.30
2017-06-21T02:08:29.134Z,81.20
2017-06-21T02:10:57.450Z,81.20
2017-06-21T02:13:24.980Z,81.20
2017-06-21T02:15:53.296Z,81.20
2017-06-21T02:18:20.821Z,81.20
2017-06-21T02:20:48.383Z,81.10
2017-06-21T02:23:15.916Z,80.90
2017-06-21T02:25:43.449Z,81.10
2017-06-21T02:28:11.003Z,81.10
2017-06-21T02:30:39.304Z,80.70
2017-06-21T02:33:06.856Z,80.70
2017-06-21T02:35:34.383Z,80.60
2017-06-21T02:38:02.695Z,80.70
2017-06-21T02:40:30.231Z,80.60
2017-06-21T02:42:58.564Z,80.90
2017-06-21T02:45:26.094Z,80.80
2017-06-21T02:47:53.619Z,80.80
2017-06-21T02:50:21.167Z,81.20
2017-06-21T02:52:48.696Z,81.10
2017-06-21T02:55:17.009Z,80.80
2017-06-21T02:57:44.540Z,80.80
2017-06-21T03:00:12.864Z,80.70
2017-06-21T03:02:41.159Z,80.80
2017-06-21T03:05:08.695Z,80.80
2017-06-21T03:07:36.244Z,80.90
2017-06-21T03:10:03.769Z,81.10
2017-06-21T03:12:32.107Z,80.60
2017-06-21T03:15:11.614Z,80.60
2017-06-21T03:17:39.159Z,80.50
2017-06-21T03:20:07.452Z,81.10
2017-06-21T03:22:35.012Z,81.00
2017-06-21T03:25:02.536Z,80.80
2017-06-21T03:27:30.827Z,80.20
2017-06-21T03:29:58.375Z,80.20
2017-06-21T03:32:25.895Z,79.90
2017-06-21T03:34:53.445Z,79.20
2017-06-21T03:37:21.735Z,79.60
2017-06-21T03:39:49.288Z,79.50
2017-06-21T03:42:16.815Z,80.20
2017-06-21T03:44:44.362Z,80.50
2017-06-21T03:47:11.886Z,80.30
2017-06-21T03:49:39.415Z,79.90
2017-06-21T03:52:07.732Z,80.60
2017-06-21T03:54:35.259Z,79.80
2017-06-21T03:57:02.807Z,79.70
2017-06-21T03:59:30.335Z,79.50
2017-06-21T04:01:57.899Z,79.20
2017-06-21T04:04:25.428Z,79.00
2017-06-21T04:06:52.956Z,79.10
2017-06-21T04:09:21.271Z,80.00
2017-06-21T04:11:48.801Z,79.10
2017-06-21T04:14:17.117Z,78.80
2017-06-21T04:16:44.639Z,78.70
2017-06-21T04:19:12.948Z,78.40
2017-06-21T04:21:40.471Z,78.30
2017-06-21T04:24:08.034Z,78.10
2017-06-21T04:26:35.555Z,77.80
2017-06-21T04:29:03.859Z,77.60
2017-06-21T04:31:31.403Z,77.50
2017-06-21T04:33:58.931Z,77.00
2017-06-21T04:36:26.475Z,76.70
2017-06-21T04:38:54.001Z,76.10
2017-06-21T04:41:21.550Z,75.40
2017-06-21T04:43:49.631Z,74.60
2017-06-21T04:46:17.272Z,72.90
2017-06-21T04:48:46.163Z,71.40
2017-06-21T04:51:14.863Z,68.10
2017-06-21T04:53:43.191Z,67.00
2017-06-21T04:56:10.720Z,66.90
2017-06-21T04:58:39.032Z,64.50
2017-06-21T05:01:06.559Z,64.30
2017-06-21T05:03:34.875Z,61.80
2017-06-21T05:06:02.399Z,61.60
2017-06-21T05:08:29.943Z,60.50
2017-06-21T05:10:57.474Z,59.20
2017-06-21T05:13:25.006Z,58.40
2017-06-21T05:15:52.552Z,57.40
2017-06-21T05:18:20.083Z,56.60
2017-06-21T05:20:47.631Z,55.20
2017-06-21T05:23:15.156Z,55.00
2017-06-21T05:25:42.704Z,53.60
2017-06-21T05:28:10.231Z,53.20
2017-06-21T05:30:37.800Z,53.20
2017-06-21T05:33:05.323Z,51.60
2017-06-21T05:35:32.851Z,51.70
2017-06-21T05:38:00.395Z,50.20
2017-06-21T05:40:27.919Z,50.40
2017-06-21T05:42:55.464Z,48.10
2017-06-21T05:45:22.998Z,49.40
2017-06-21T05:47:51.323Z,48.30
2017-06-21T05:50:18.847Z,48.30
2017-06-21T05:52:46.400Z,50.00
2017-06-21T05:55:14.690Z,49.00
2017-06-21T05:57:42.239Z,48.90
2017-06-21T06:00:10.530Z,46.30
2017-06-21T06:02:38.063Z,46.90
2017-06-21T06:05:05.612Z,45.30
2017-06-21T06:07:33.138Z,44.30
2017-06-21T06:10:01.461Z,44.60
2017-06-21T06:12:28.995Z,44.50
2017-06-21T06:14:56.539Z,44.80
2017-06-21T06:17:24.067Z,43.20
2017-06-21T06:19:51.611Z,43.50
2017-06-21T06:22:19.140Z,43.20
2017-06-21T06:24:46.714Z,42.10
2017-06-21T06:27:15.007Z,41.60
2017-06-21T06:29:42.535Z,41.60
2017-06-21T06:32:10.084Z,42.10
2017-06-21T06:34:37.611Z,40.70
2017-06-21T06:37:05.155Z,41.80
2017-06-21T06:39:33.447Z,40.90
2017-06-21T06:42:01.766Z,42.50
2017-06-21T06:44:29.292Z,42.50
2017-06-21T06:46:56.835Z,42.30
2017-06-21T06:49:24.367Z,44.60
2017-06-21T06:51:51.930Z,46.90
2017-06-21T06:54:19.455Z,48.30
2017-06-21T06:56:46.986Z,47.70
2017-06-21T06:59:14.526Z,48.30
2017-06-21T07:01:42.051Z,49.20
2017-06-21T07:04:09.598Z,48.80
2017-06-21T07:06:37.125Z,48.60
2017-06-21T07:09:04.671Z,49.80
2017-06-21T07:11:32.195Z,50.80
2017-06-21T07:13:59.751Z,51.90
2017-06-21T07:16:28.050Z,51.20
2017-06-21T07:18:56.429Z,51.20
2017-06-21T07:21:23.960Z,51.50
2017-06-21T07:23:51.488Z,51.20
2017-06-21T07:26:19.035Z,52.30
2017-06-21T07:28:46.560Z,53.40
2017-06-21T07:31:14.112Z,53.10
2017-06-21T07:33:41.634Z,52.60
2017-06-21T07:36:09.185Z,53.50
2017-06-21T07:38:36.712Z,53.60
2017-06-21T07:41:05.026Z,51.40
2017-06-21T07:43:32.551Z,51.30
2017-06-21T07:46:00.079Z,52.80
2017-06-21T07:48:27.619Z,52.10
2017-06-21T07:50:55.143Z,51.50
2017-06-21T07:53:22.691Z,49.60
2017-06-21T07:55:50.978Z,50.40
2017-06-21T07:58:18.527Z,50.40
2017-06-21T08:00:46.052Z,49.80
2017-06-21T08:03:13.599Z,48.90
2017-06-21T08:05:41.132Z,47.40
2017-06-21T08:08:09.427Z,48.10
2017-06-21T08:10:36.976Z,47.90
2017-06-21T08:13:04.506Z,46.90
2017-06-21T08:15:32.055Z,46.60
2017-06-21T08:18:00.351Z,46.00
2017-06-21T08:20:27.896Z,45.90
2017-06-21T08:22:55.469Z,45.90
2017-06-21T08:25:23.030Z,42.70
2017-06-21T08:27:50.552Z,42.50
2017-06-21T08:30:18.080Z,41.00
2017-06-21T08:32:45.633Z,42.80
2017-06-21T08:35:13.931Z,40.60
2017-06-21T08:37:41.517Z,40.60
2017-06-21T08:40:09.045Z,40.70
2017-06-21T08:42:36.587Z,41.80
2017-06-21T08:45:04.109Z,40.00
2017-06-21T08:47:31.659Z,37.90
2017-06-21T08:49:59.205Z,39.80
2017-06-21T08:52:26.731Z,39.70
2017-06-21T08:54:54.279Z,40.70
2017-06-21T08:57:21.808Z,39.00
2017-06-21T08:59:50.119Z,38.50
2017-06-21T09:02:17.640Z,38.50
2017-06-21T09:04:45.170Z,37.00
2017-06-21T09:07:12.715Z,38.30
2017-06-21T09:09:40.245Z,39.60
2017-06-21T09:12:07.794Z,36.70
2017-06-21T09:14:35.324Z,35.40
2017-06-21T09:17:02.876Z,36.90
2017-06-21T09:19:30.401Z,35.30
2017-06-21T09:21:57.964Z,35.40
2017-06-21T09:24:25.491Z,36.30
2017-06-21T09:26:53.779Z,34.50
2017-06-21T09:29:21.328Z,34.50
2017-06-21T09:31:49.620Z,33.90
2017-06-21T09:34:17.183Z,33.80
2017-06-21T09:36:44.716Z,31.70
2017-06-21T09:39:12.247Z,33.70
2017-06-21T09:41:39.797Z,31.60
2017-06-21T09:44:07.327Z,33.20
2017-06-21T09:46:34.885Z,32.10
2017-06-21T09:49:03.184Z,33.30
2017-06-21T09:51:30.732Z,33.30
2017-06-21T09:53:58.262Z,34.30
2017-06-21T09:56:25.824Z,32.60
2017-06-21T09:58:53.352Z,31.50
2017-06-21T10:01:20.884Z,32.50
2017-06-21T10:03:48.430Z,31.50
2017-06-21T10:06:15.972Z,31.00
2017-06-21T10:08:43.523Z,31.30
2017-06-21T10:11:11.056Z,30.20
2017-06-21T10:13:38.624Z,29.20
2017-06-21T10:16:06.919Z,29.00
2017-06-21T10:18:35.210Z,27.20
2017-06-21T10:21:02.751Z,27.20
2017-06-21T10:23:30.278Z,27.30
2017-06-21T10:25:57.829Z,27.20
2017-06-21T10:28:25.356Z,26.80
2017-06-21T10:30:53.674Z,26.30
2017-06-21T10:33:21.195Z,26.20
2017-06-21T10:35:48.759Z,27.00
2017-06-21T10:38:16.282Z,26.50
2017-06-21T10:40:43.806Z,25.80
2017-06-21T10:43:11.356Z,23.90
2017-06-21T10:45:38.882Z,24.50
2017-06-21T10:48:06.428Z,23.60
2017-06-21T10:50:33.956Z,24.80
2017-06-21T10:53:01.503Z,23.80
2017-06-21T10:55:29.034Z,25.40
2017-06-21T10:57:56.587Z,24.90
2017-06-21T11:00:24.108Z,24.70
2017-06-21T11:02:51.634Z,23.00
2017-06-21T11:05:19.175Z,25.00
2017-06-21T11:07:47.467Z,24.50
2017-06-21T11:10:15.011Z,24.40
2017-06-21T11:12:42.533Z,24.80
2017-06-21T11:15:10.083Z,25.50
2017-06-21T11:17:37.611Z,24.00
2017-06-21T11:20:05.179Z,23.30
2017-06-21T11:22:32.698Z,23.10
2017-06-21T11:25:00.227Z,25.80
2017-06-21T11:27:27.777Z,25.30
2017-06-21T11:29:55.307Z,23.20
2017-06-21T11:32:22.869Z,22.60
2017-06-21T11:34:50.410Z,24.00
2017-06-21T11:37:17.954Z,24.50
2017-06-21T11:39:45.479Z,25.00
2017-06-21T11:42:13.811Z,26.20
2017-06-21T11:44:41.339Z,26.20
2017-06-21T11:47:08.868Z,25.20
2017-06-21T11:49:36.411Z,25.90
2017-06-21T11:52:03.940Z,26.10
2017-06-21T11:54:31.491Z,26.40
2017-06-21T11:56:59.031Z,26.40
2017-06-21T11:59:27.347Z,25.60
2017-06-21T12:01:54.870Z,25.50
2017-06-21T12:04:23.203Z,26.40
2017-06-21T12:06:50.726Z,26.40
2017-06-21T12:09:18.254Z,26.30
2017-06-21T12:11:45.804Z,25.60
2017-06-21T12:14:13.335Z,27.00
2017-06-21T12:16:41.648Z,26.80
2017-06-21T12:19:09.180Z,26.80
2017-06-21T12:21:37.499Z,26.70
2017-06-21T12:24:05.024Z,26.60
2017-06-21T12:26:32.580Z,28.30
2017-06-21T12:29:00.124Z,27.40
2017-06-21T12:31:27.655Z,28.60
2017-06-21T12:33:55.975Z,27.40
2017-06-21T12:36:23.500Z,27.40
2017-06-21T12:38:51.810Z,26.70
2017-06-21T12:41:19.343Z,26.60
2017-06-21T12:43:46.892Z,26.10
2017-06-21T12:46:14.420Z,26.10
2017-06-21T12:48:42.748Z,25.90
2017-06-21T12:51:10.275Z,25.90
2017-06-21T12:53:37.803Z,25.90
2017-06-21T12:56:05.351Z,25.30
2017-06-21T12:58:32.875Z,26.40
2017-06-21T13:01:01.189Z,26.20
2017-06-21T13:03:28.719Z,26.20
2017-06-21T13:05:56.274Z,26.40
2017-06-21T13:08:23.807Z,26.70
2017-06-21T13:10:51.376Z,26.50
2017-06-21T13:13:18.912Z,27.30
2017-06-21T13:15:46.439Z,27.20
2017-06-21T13:18:13.983Z,26.80
2017-06-21T13:20:41.516Z,28.70
2017-06-21T13:23:09.065Z,29.70
2017-06-21T13:25:36.592Z,28.80
2017-06-21T13:28:04.143Z,28.10
2017-06-21T13:30:31.676Z,28.70
2017-06-21T13:32:59.207Z,27.40
2017-06-21T13:35:26.798Z,27.80
2017-06-21T13:37:54.335Z,29.60
2017-06-21T13:40:21.885Z,29.10
2017-06-21T13:42:49.414Z,30.00
2017-06-21T13:45:16.972Z,26.90
2017-06-21T13:47:44.502Z,28.00
2017-06-21T13:50:12.031Z,29.10
2017-06-21T13:52:39.578Z,27.30
2017-06-21T13:55:07.103Z,27.60
2017-06-21T13:57:34.652Z,28.10
2017-06-21T14:00:02.184Z,26.10
2017-06-21T14:02:30.500Z,25.60
2017-06-21T14:04:58.031Z,25.50
2017-06-21T14:07:25.591Z,24.40
2017-06-21T14:09:53.119Z,24.60
2017-06-21T14:12:20.651Z,25.50
2017-06-21T14:14:48.195Z,26.40
2017-06-21T14:17:15.719Z,26.70
2017-06-21T14:19:43.264Z,25.50
2017-06-21T14:22:10.796Z,24.80
2017-06-21T14:24:38.359Z,25.10
2017-06-21T14:27:05.885Z,25.10
2017-06-21T14:29:33.406Z,25.30
2017-06-21T14:32:01.720Z,25.60
2017-06-21T14:34:29.246Z,25.60
2017-06-21T14:36:56.794Z,26.40
2017-06-21T14:39:24.323Z,26.40
2017-06-21T14:41:51.884Z,25.90
2017-06-21T14:44:19.416Z,24.80
2017-06-21T14:46:46.939Z,25.40
2017-06-21T14:49:14.490Z,25.10
2017-06-21T14:51:42.015Z,24.40
2017-06-21T14:54:09.558Z,24.80
2017-06-21T14:56:37.084Z,25.20
2017-06-21T14:59:04.631Z,25.90
2017-06-21T15:01:32.168Z,26.20
2017-06-21T15:04:00.504Z,26.70
2017-06-21T15:06:28.034Z,26.60
2017-06-21T15:08:55.571Z,25.90
2017-06-21T15:11:23.119Z,25.20
2017-06-21T15:13:50.652Z,25.00
2017-06-21T15:16:18.199Z,25.70
2017-06-21T15:18:45.723Z,25.30
2017-06-21T15:21:13.263Z,25.10
2017-06-21T15:23:40.784Z,25.30
2017-06-21T15:26:08.331Z,25.00
2017-06-21T15:28:36.623Z,26.30
2017-06-21T15:31:04.187Z,26.30
2017-06-21T15:33:31.723Z,26.10
2017-06-21T15:35:59.255Z,26.50
2017-06-21T15:38:26.802Z,26.10
2017-06-21T15:40:54.327Z,25.80
2017-06-21T15:43:21.874Z,26.60
2017-06-21T15:45:49.399Z,27.70
2017-06-21T15:48:16.944Z,28.20
2017-06-21T15:50:44.467Z,27.30
2017-06-21T15:53:12.022Z,28.70
2017-06-21T15:55:40.320Z,30.30
2017-06-21T15:58:07.852Z,30.30
2017-06-21T16:00:35.410Z,29.80
2017-06-21T16:03:02.936Z,29.70
2017-06-21T16:05:30.482Z,31.10
2017-06-21T16:07:58.007Z,32.70
2017-06-21T16:10:25.552Z,32.20
2017-06-21T16:12:53.079Z,30.20
2017-06-21T16:15:20.631Z,32.40
2017-06-21T16:17:48.155Z,32.20
2017-06-21T16:20:15.711Z,33.60
2017-06-21T16:22:43.235Z,32.40
2017-06-21T16:25:10.759Z,32.70
2017-06-21T16:27:38.300Z,32.30
2017-06-21T16:30:05.824Z,33.20
2017-06-21T16:32:33.366Z,33.80
2017-06-21T16:35:00.891Z,32.80
2017-06-21T16:37:28.451Z,34.20
2017-06-21T16:39:55.983Z,36.30
2017-06-21T16:42:23.508Z,38.50
2017-06-21T16:44:51.056Z,37.20
2017-06-21T16:47:18.587Z,37.50
2017-06-21T16:49:46.131Z,36.60
2017-06-21T16:52:13.662Z,38.70
2017-06-21T16:54:41.202Z,36.00
2017-06-21T16:57:08.727Z,36.70
2017-06-21T16:59:36.291Z,38.40
2017-06-21T17:02:03.824Z,40.60
2017-06-21T17:04:31.348Z,38.70
2017-06-21T17:06:59.661Z,41.90
2017-06-21T17:09:27.950Z,43.30
2017-06-21T17:11:55.491Z,43.30
2017-06-21T17:14:23.783Z,42.80
2017-06-21T17:16:52.099Z,42.20
2017-06-21T17:19:19.626Z,42.10
2017-06-21T17:21:47.154Z,40.90
2017-06-21T17:24:14.705Z,42.10
2017-06-21T17:26:42.236Z,42.50
2017-06-21T17:29:09.788Z,43.80
2017-06-21T17:31:37.320Z,42.80
2017-06-21T17:34:04.884Z,42.50
2017-06-21T17:36:32.412Z,42.10
2017-06-21T17:38:59.940Z,44.10
2017-06-21T17:41:28.252Z,43.50
2017-06-21T17:43:55.779Z,43.50
2017-06-21T17:46:24.092Z,45.00
2017-06-21T17:48:51.618Z,45.00
2017-06-21T17:51:19.163Z,45.60
2017-06-21T17:53:46.687Z,46.80
2017-06-21T17:56:14.244Z,47.10
2017-06-21T17:58:41.767Z,48.10
2017-06-21T18:01:10.058Z,47.30
2017-06-21T18:03:37.606Z,47.20
2017-06-21T18:06:05.131Z,46.00
2017-06-21T18:08:32.680Z,46.50
2017-06-21T18:11:00.208Z,46.60
2017-06-21T18:13:27.771Z,47.80
2017-06-21T18:15:55.296Z,48.50
2017-06-21T18:18:22.825Z,49.00
2017-06-21T18:20:50.371Z,49.00
2017-06-21T18:23:18.667Z,48.90
2017-06-21T18:25:46.230Z,48.90
2017-06-21T18:28:13.763Z,48.70
2017-06-21T18:30:41.322Z,49.00
2017-06-21T18:33:08.848Z,49.40
2017-06-21T18:35:36.371Z,49.60
2017-06-21T18:38:03.919Z,50.20
2017-06-21T18:40:31.443Z,50.10
2017-06-21T18:42:59.008Z,50.10
2017-06-21T18:45:26.532Z,49.80
2017-06-21T18:47:54.060Z,49.70
2017-06-21T18:50:21.602Z,49.90
2017-06-21T18:52:49.127Z,50.80
2017-06-21T18:55:16.671Z,53.00
2017-06-21T18:57:44.208Z,53.80
2017-06-21T19:00:12.535Z,53.80
2017-06-21T19:02:40.060Z,53.70
2017-06-21T19:05:07.588Z,54.20
2017-06-21T19:07:35.899Z,54.80
2017-06-21T19:10:03.423Z,54.80
2017-06-21T19:12:30.968Z,55.00
2017-06-21T19:14:58.522Z,54.50
2017-06-21T19:17:26.085Z,54.00
2017-06-21T19:19:53.614Z,54.00
2017-06-21T19:22:21.143Z,54.90
2017-06-21T19:24:48.687Z,55.40
2017-06-21T19:27:16.212Z,55.70
2017-06-21T19:29:44.559Z,55.60
2017-06-21T19:32:12.084Z,55.50
2017-06-21T19:34:39.638Z,55.60
2017-06-21T19:37:07.164Z,55.60
2017-06-21T19:39:34.691Z,55.60
2017-06-21T19:42:02.232Z,56.00
2017-06-21T19:44:30.529Z,56.10
2017-06-21T19:46:58.844Z,56.20
2017-06-21T19:49:27.135Z,56.30
2017-06-21T19:51:54.684Z,56.20
2017-06-21T19:54:22.975Z,56.40
2017-06-21T19:56:50.498Z,55.70
2017-06-21T19:59:18.047Z,55.90
2017-06-21T20:01:46.334Z,56.20
2017-06-21T20:04:14.646Z,56.30
2017-06-21T20:06:42.934Z,56.80
2017-06-21T20:09:11.264Z,56.60
2017-06-21T20:11:38.792Z,56.60
2017-06-21T20:14:06.321Z,57.00
2017-06-21T20:16:33.874Z,57.30
2017-06-21T20:19:01.402Z,57.50
2017-06-21T20:21:28.942Z,58.00
2017-06-21T20:23:56.467Z,58.20
2017-06-21T20:26:24.012Z,58.20
2017-06-21T20:28:51.539Z,58.30
2017-06-21T20:31:19.097Z,58.40
2017-06-21T20:33:46.623Z,58.60
2017-06-21T20:36:14.916Z,59.40
2017-06-21T20:38:42.459Z,59.30
2017-06-21T20:41:09.988Z,59.70
2017-06-21T20:43:37.536Z,59.60
2017-06-21T20:46:05.059Z,59.30
2017-06-21T20:48:32.619Z,59.10
2017-06-21T20:51:00.487Z,59.30
2017-06-21T20:53:28.039Z,59.70
2017-06-21T20:55:55.598Z,60.20
2017-06-21T20:58:23.132Z,60.70
2017-06-21T21:00:50.681Z,61.20
2017-06-21T21:03:18.210Z,61.80
2017-06-21T21:05:45.770Z,62.00
2017-06-21T21:08:13.298Z,62.80
2017-06-21T21:10:41.592Z,64.30
2017-06-21T21:13:09.135Z,64.30
2017-06-21T21:15:37.431Z,64.70
2017-06-21T21:18:04.974Z,63.70
2017-06-21T21:20:32.503Z,63.30
2017-06-21T21:23:00.831Z,62.50
2017-06-21T21:25:28.364Z,62.50
2017-06-21T21:27:55.891Z,62.30
2017-06-21T21:30:23.435Z,62.10
2017-06-21T21:32:50.956Z,62.80
2017-06-21T21:35:18.500Z,63.20
2017-06-21T21:37:46.024Z,63.40
2017-06-21T21:40:14.347Z,63.30
2017-06-21T21:42:41.871Z,63.30
2017-06-21T21:45:09.395Z,62.90
2017-06-21T21:47:36.943Z,63.50
2017-06-21T21:50:04.478Z,64.70
2017-06-21T21:52:32.023Z,63.70
2017-06-21T21:54:59.551Z,64.60
2017-06-21T21:57:27.112Z,65.70
2017-06-21T21:59:55.402Z,68.00
2017-06-21T22:02:22.936Z,68.00
2017-06-21T22:04:50.482Z,66.90
2017-06-21T22:07:18.004Z,65.80
2017-06-21T22:09:45.547Z,66.70
2017-06-21T22:12:13.839Z,67.60
2017-06-21T22:14:41.399Z,67.50
2017-06-21T22:17:08.923Z,68.50
2017-06-21T22:19:36.446Z,68.70
2017-06-21T22:22:03.992Z,69.40
2017-06-21T22:24:31.518Z,69.50
2017-06-21T22:26:59.063Z,69.10
2017-06-21T22:29:26.593Z,67.30
2017-06-21T22:31:54.151Z,65.80
2017-06-21T22:34:21.676Z,66.00
2017-06-21T22:36:49.971Z,67.30
2017-06-21T22:39:17.515Z,67.30
2017-06-21T22:41:45.035Z,69.30
2017-06-21T22:44:13.343Z,71.20
2017-06-21T22:46:40.871Z,71.10
2017-06-21T22:49:08.434Z,70.20
2017-06-21T22:51:35.964Z,67.90
2017-06-21T22:54:03.499Z,68.60
2017-06-21T22:56:31.049Z,70.10
2017-06-21T22:58:58.576Z,70.80
2017-06-21T23:01:26.122Z,70.80
2017-06-21T23:03:53.650Z,71.20
2017-06-21T23:06:21.207Z,71.20
2017-06-21T23:08:48.735Z,70.10
2017-06-21T23:11:16.259Z,69.90
2017-06-21T23:13:43.804Z,69.80
2017-06-21T23:16:11.331Z,70.10
2017-06-21T23:18:38.882Z,67.80
2017-06-21T23:21:06.406Z,67.60
2017-06-21T23:23:34.721Z,69.20
2017-06-21T23:26:03.007Z,70.90
2017-06-21T23:28:30.531Z,70.90
2017-06-21T23:30:58.082Z,71.40
2017-06-21T23:33:25.603Z,70.50
2017-06-21T23:35:53.146Z,71.20
2017-06-21T23:38:21.440Z,71.70
2017-06-21T23:40:49.000Z,71.50
2017-06-21T23:43:16.527Z,71.60
2017-06-21T23:45:44.051Z,70.30
2017-06-21T23:48:12.359Z,72.80
2017-06-21T23:50:39.884Z,72.80
2017-06-21T23:53:07.429Z,72.80
2017-06-21T23:55:34.953Z,72.90
2017-06-21T23:58:02.508Z,73.50
